Terminal Aerodrome Forecast
Issued by NWS Knoxville/Tri Cities, TN

Home | Current Version | Previous Version | Text Only | Print | Product List | Glossary On
Versions: 1 2 3 4 5 6 7 8 9 10 11 12 13 14 15 16 17 18 19 20 21 22 23 24 25
000
FTUS44 KMRX 251405 AAA
TAFTYS
TAF AMD
KTYS 251405Z 2514/2612 VRB06KT P6SM VCSH SCT025 BKN100
     FM251600 22010KT P6SM SCT030 BKN100
     FM252200 23015G25KT P6SM VCTS SCT030CB BKN100
     FM260600 25010KT P6SM BKN025 BKN080=

USA.gov is the U.S. government's official web portal to all federal, state and local government web resources and services.